Time;durP1;ratioP1;P1;durP2;ratioP2;P2;SDS_P1;SDS_P2;PMS_P1;PMS_P2;Temp;Humidity;BMP_temperature;BMP_pressure;BME280_temperature;BME280_humidity;BME280_pressure;Samples;Min_cycle;Max_cycle;Signal;HPM_P1;HPM_P2
2021/04/26 00:01:18;;;;;;;9.45;4.38;;;;;;;11.47;50.34;92410.16;4973694;28;20141;-92
2021/04/26 00:04:54;;;;;;;10.00;4.55;;;;;;;11.32;50.55;92390.25;5049828;28;20091;-91
2021/04/26 00:08:31;;;;;;;;;;;;;;;;;;;;;
2021/04/26 00:11:44;;;;;;;11.43;4.10;;;;;;;11.62;50.62;92422.19;5034085;28;20297;-92
2021/04/26 00:14:59;;;;;;;;;;;;;;;;;;;;;
2021/04/26 00:21:26;;;;;;;10.38;4.43;;;;;;;11.28;50.64;92359.69;5041390;28;20063;-91
2021/04/26 00:24:43;;;;;;;7.25;4.18;;;;;;;11.24;50.46;92354.25;5034240;28;20087;-91
2021/04/26 00:31:04;;;;;;;6.82;4.43;;;;;;;11.48;50.27;92379.47;5063250;28;20052;-92
2021/04/26 00:34:02;;;;;;;;;;;;;;;11.61;50.34;92403.03;5022214;28;20048;-91
2021/04/26 00:37:10;;;;;;;12.07;4.10;;;;;;;11.60;50.19;92398.09;5032315;28;20281;-90
2021/04/26 00:43:26;;;;;;;8.50;3.83;;;;;;;11.45;50.31;92371.13;5039882;28;20147;-92
2021/04/26 00:46:45;;;;;;;7.00;3.45;;;;;;;11.22;50.16;92338.06;5024707;28;20045;-91
2021/04/26 00:49:58;;;;;;;6.53;3.70;;;;;;;11.21;49.77;92349.59;5036235;28;20106;-91
2021/04/26 00:53:37;;;;;;;6.50;3.72;;;;;;;11.42;49.18;92381.44;5031005;28;20510;-92
2021/04/26 01:01:01;;;;;;;7.75;3.70;;;;;;;11.23;48.77;92344.84;4953592;28;20404;-91
2021/04/26 01:04:02;;;;;;;6.90;3.75;;;;;;;11.53;48.07;92380.16;5058784;28;20040;-92
2021/04/26 01:07:03;;;;;;;6.22;3.50;;;;;;;11.33;48.12;92342.03;5039511;28;20507;-90
2021/04/26 01:10:07;;;;;;;;;;;;;;;;;;;;;
2021/04/26 01:13:35;;;;;;;;;;;;;;;;;;;;;
2021/04/26 01:17:11;;;;;;;6.07;3.42;;;;;;;11.44;48.07;92353.84;5054077;28;20096;-91
2021/04/26 01:24:24;;;;;;;;;;;;;;;;;;;;;
2021/04/26 01:27:53;;;;;;;;;;;;;;;;;;;;;
2021/04/26 01:30:44;;;;;;;;;;;;;;;11.76;49.04;92388.84;5052273;28;20394;-91
2021/04/26 01:34:17;;;;;;;6.90;4.20;;;;;;;11.48;48.98;92348.00;5031641;28;19967;-93
2021/04/26 01:37:43;;;;;;;;;;;;;;;;;;;;;
2021/04/26 01:40:58;;;;;;;;;;;;;;;;;;;;;
2021/04/26 01:44:26;;;;;;;7.50;4.35;;;;;;;11.43;50.69;92364.63;5034111;28;20052;-92
2021/04/26 01:47:07;;;;;;;7.65;4.63;;;;;;;11.32;51.51;92353.56;5028592;28;20061;-92
2021/04/26 01:53:13;;;;;;;;;;;;;;;;;;;;;
2021/04/26 01:56:21;;;;;;;7.88;4.50;;;;;;;11.11;52.37;92336.72;5048871;28;20478;-90
2021/04/26 01:59:32;;;;;;;;;;;;;;;;;;;;;
2021/04/26 02:02:35;;;;;;;;;;;;;;;;;;;;;
2021/04/26 02:05:52;;;;;;;9.55;5.07;;;;;;;11.12;52.60;92351.34;5042098;28;20056;-91
2021/04/26 02:09:28;;;;;;;;;;;;;;;;;;;;;
2021/04/26 02:13:05;;;;;;;;;;;;;;;;;;;;;
2021/04/26 02:19:53;;;;;;;;;;;;;;;;;;;;;
2021/04/26 02:27:00;;;;;;;8.70;5.50;;;;;;;11.16;53.38;92352.31;5039557;28;20052;-91
2021/04/26 02:33:32;;;;;;;;;;;;;;;;;;;;;
2021/04/26 02:36:57;;;;;;;;;;;;;;;;;;;;;
2021/04/26 02:40:06;;;;;;;;;;;;;;;;;;;;;
2021/04/26 02:46:45;;;;;;;6.82;4.32;;;;;;;11.32;54.10;92366.66;5029963;28;20046;-91
2021/04/26 02:53:19;;;;;;;;;;;;;;;;;;;;;
2021/04/26 02:56:16;;;;;;;9.45;5.03;;;;;;;10.87;53.10;92295.78;5045769;28;20045;-92
2021/04/26 03:03:12;;;;;;;10.27;4.68;;;;;;;11.10;53.98;92322.03;5040616;28;20052;-92
2021/04/26 03:06:36;;;;;;;8.55;5.28;;;;;;;10.96;54.15;92301.88;5045872;28;20047;-90
2021/04/26 03:10:05;;;;;;;7.70;4.30;;;;;;;11.18;54.33;92329.22;5015069;28;20052;-91
2021/04/26 03:13:35;;;;;;;;;;;;;;;;;;;;;
2021/04/26 03:20:49;;;;;;;;;;;;;;;;;;;;;
2021/04/26 03:24:32;;;;;;;;;;;;;;;;;;;;;
2021/04/26 03:31:58;;;;;;;7.30;4.47;;;;;;;10.77;53.30;92290.75;5012947;28;20129;-91
2021/04/26 03:34:57;;;;;;;7.63;4.57;;;;;;;11.19;50.40;92346.47;5019906;28;20055;-91
2021/04/26 03:37:40;;;;;;;6.38;3.80;;;;;;;10.76;49.97;92278.72;5005270;28;20095;-92
2021/04/26 03:40:27;;;;;;;10.85;3.88;;;;;;;11.03;49.58;92320.63;5018128;28;20041;-92
2021/04/26 03:43:00;;;;;;;6.63;3.70;;;;;;;11.07;49.28;92327.88;5020115;28;20044;-90
2021/04/26 03:46:05;;;;;;;9.35;3.80;;;;;;;11.15;49.60;92340.31;4975997;28;20104;-90
2021/04/26 03:49:18;;;;;;;6.63;3.70;;;;;;;10.89;49.76;92296.25;4997307;28;20048;-90
2021/04/26 03:52:42;;;;;;;;;;;;;;;;;;;;;
2021/04/26 04:06:42;;;;;;;;;;;;;;;;;;;;;
2021/04/26 04:10:18;;;;;;;6.20;3.20;;;;;;;10.70;50.94;92293.00;4948206;29;20043;-91
2021/04/26 04:13:32;;;;;;;;;;;;;;;;;;;;;
2021/04/26 04:17:15;;;;;;;7.30;3.90;;;;;;;10.79;50.27;92309.56;5039325;28;20399;-91
2021/04/26 04:20:48;;;;;;;7.25;3.65;;;;;;;10.99;51.63;92345.84;5057421;28;20625;-91
2021/04/26 04:33:44;;;;;;;5.57;3.63;;;;;;;11.22;46.11;92377.34;5046408;28;20053;-91
2021/04/26 04:40:32;;;;;;;7.75;3.65;;;;;;;10.93;44.12;92328.66;4957582;29;20062;-91
2021/04/26 04:43:52;;;;;;;6.22;3.45;;;;;;;11.37;41.97;92373.66;4947633;29;20517;-91
2021/04/26 04:50:32;;;;;;;8.85;3.50;;;;;;;11.42;43.16;92384.81;4968845;28;20051;-93
2021/04/26 04:57:22;;;;;;;;;;;;;;;;;;;;;
2021/04/26 05:00:17;;;;;;;5.35;3.50;;;;;;;10.92;41.21;92337.59;4937398;28;20040;-94
2021/04/26 05:07:41;;;;;;;;;;;;;;;;;;;;;
2021/04/26 05:14:49;;;;;;;6.07;3.55;;;;;;;10.60;42.35;92365.41;4891550;29;20040;-89
2021/04/26 05:21:21;;;;;;;9.68;4.05;;;;;;;10.57;42.94;92376.44;4893738;28;20516;-89
2021/04/26 05:24:34;;;;;;;;;;;;;;;;;;;;;
2021/04/26 05:27:43;;;;;;;9.98;4.55;;;;;;;10.74;43.16;92417.78;5037929;28;20045;-90
2021/04/26 05:37:52;;;;;;;9.20;4.60;;;;;;;10.70;43.92;92398.47;5030840;28;20419;-90
2021/04/26 05:40:56;;;;;;;12.23;4.53;;;;;;;10.49;44.22;92376.31;5037914;28;20037;-90
2021/04/26 05:44:23;;;;;;;8.43;4.72;;;;;;;10.75;44.72;92410.69;5040420;28;20049;-90
2021/04/26 05:50:52;;;;;;;9.27;5.30;;;;;;;10.61;44.63;92380.03;5036654;28;20052;-91
2021/04/26 05:54:04;;;;;;;8.63;5.40;;;;;;;10.91;43.08;92413.81;5021248;28;20044;-93
2021/04/26 05:57:28;;;;;;;8.73;5.05;;;;;;;10.96;43.43;92427.59;5036726;28;20064;-92
2021/04/26 06:00:26;;;;;;;;;;;;;;;;;;;;;
2021/04/26 06:03:41;;;;;;;11.27;6.00;;;;;;;10.80;42.85;92394.88;5036605;28;20040;-91
2021/04/26 06:06:29;;;;;;;11.27;5.72;;;;;;;10.69;42.79;92375.19;5033197;28;20102;-91
2021/04/26 06:09:19;;;;;;;9.30;5.10;;;;;;;10.93;41.55;92412.47;5040035;28;20048;-92
2021/04/26 06:12:23;;;;;;;10.45;5.40;;;;;;;10.77;42.59;92377.91;5026128;28;20505;-92
2021/04/26 06:15:26;;;;;;;10.25;5.20;;;;;;;10.77;42.71;92366.69;5006576;28;20049;-92
2021/04/26 06:18:30;;;;;;;;;;;;;;;;;;;;;
2021/04/26 06:21:44;;;;;;;;;;;;;;;;;;;;;
2021/04/26 06:27:56;;;;;;;;;;;;;;;;;;;;;
2021/04/26 06:30:42;;;;;;;10.15;5.68;;;;;;;11.38;41.71;92423.16;5053702;28;20053;-92
2021/04/26 06:33:57;;;;;;;;;;;;;;;;;;;;;
2021/04/26 06:36:40;;;;;;;12.05;4.72;;;;;;;11.25;42.48;92410.81;5039696;28;20075;-90
2021/04/26 06:39:42;;;;;;;;;;;;;;;;;;;;;
2021/04/26 06:42:36;;;;;;;12.32;4.25;;;;;;;11.30;45.32;92409.94;5022175;28;20042;-91
2021/04/26 06:45:48;;;;;;;6.93;4.35;;;;;;;11.02;45.11;92363.56;5033585;28;20566;-91
2021/04/26 06:49:19;;;;;;;;;;;;;;;;;;;;;
2021/04/26 06:55:48;;;;;;;8.82;4.47;;;;;;;11.07;44.62;92361.94;5053205;28;20041;-90
2021/04/26 07:02:16;;;;;;;9.20;5.28;;;;;;;11.20;43.84;92375.03;5043166;28;20091;-91
2021/04/26 07:05:16;;;;;;;10.35;5.07;;;;;;;11.15;44.43;92369.13;5039514;28;20498;-90
2021/04/26 07:08:26;;;;;;;;;;;;;;;;;;;;;
2021/04/26 07:11:56;;;;;;;;;;;;;;;;;;;;;
2021/04/26 07:18:44;;;;;;;;;;;;;;;;;;;;;
2021/04/26 07:21:27;;;;;;;10.05;5.05;;;;;;;11.27;44.01;92374.63;5053708;28;20063;-91
2021/04/26 07:25:14;;;;;;;11.23;5.53;;;;;;;11.60;43.91;92419.06;5025109;28;20056;-91
2021/04/26 07:28:13;;;;;;;;;;;;;;;;;;;;;
2021/04/26 07:31:37;;;;;;;14.52;5.97;;;;;;;11.54;44.56;92400.03;5022078;28;20541;-91
2021/04/26 07:37:51;;;;;;;15.82;6.80;;;;;;;11.52;45.49;92375.19;5035413;28;20525;-91
2021/04/26 07:41:37;;;;;;;14.48;6.25;;;;;;;11.76;44.74;92427.41;4985018;28;20061;-90
2021/04/26 07:48:57;;;;;;;10.57;4.78;;;;;;;11.40;45.30;92394.81;5051364;28;20047;-92
2021/04/26 07:51:59;;;;;;;12.35;5.30;;;;;;;11.33;45.79;92412.78;4942553;28;20039;-91
2021/04/26 07:58:14;;;;;;;9.27;5.05;;;;;;;10.89;46.52;92377.44;5035598;28;20056;-90
2021/04/26 08:01:30;;;;;;;;;;;;;;;;;;;;;
2021/04/26 08:04:11;;;;;;;8.93;4.57;;;;;;;10.91;48.15;92388.41;5035849;28;20055;-90
2021/04/26 08:07:13;;;;;;;12.23;5.40;;;;;;;10.93;48.06;92390.75;5027882;28;20063;-91
2021/04/26 08:10:03;;;;;;;;;;;;;;;;;;;;;
2021/04/26 08:12:57;;;;;;;;;;;;;;;;;;;;;
2021/04/26 08:16:18;;;;;;;7.88;4.60;;;;;;;11.25;49.68;92437.03;5012532;28;20164;-91
2021/04/26 08:19:21;;;;;;;10.45;5.22;;;;;;;11.24;50.60;92422.38;5027388;28;20452;-90
2021/04/26 08:25:44;;;;;;;8.45;5.20;;;;;;;11.30;53.68;92400.25;5020723;28;20044;-91
2021/04/26 08:29:14;;;;;;;;;;;;;;;;;;;;;
2021/04/26 08:32:35;;;;;;;;;;;;;;;;;;;;;
2021/04/26 08:35:48;;;;;;;;;;;;;;;;;;;;;
2021/04/26 08:39:07;;;;;;;8.48;4.80;;;;;;;11.40;52.11;92394.81;5041954;28;20040;-90
2021/04/26 08:42:12;;;;;;;;;;;;;;;;;;;;;
2021/04/26 08:45:41;;;;;;;;;;;;;;;;;;;;;
2021/04/26 08:48:14;;;;;;;14.95;5.32;;;;;;;11.94;50.95;92449.34;5039276;28;20045;-91
2021/04/26 08:51:33;;;;;;;;;;;;;;;;;;;;;
2021/04/26 08:54:42;;;;;;;9.05;5.47;;;;;;;11.40;49.83;92401.91;5041640;28;20049;-91
2021/04/26 08:57:39;;;;;;;12.38;5.75;;;;;;;11.42;47.59;92395.28;5024716;28;20052;-91
2021/04/26 09:00:52;;;;;;;;;;;;;;;;;;;;;
2021/04/26 09:03:56;;;;;;;9.05;5.35;;;;;;;11.88;46.81;92457.31;5033094;28;20469;-92
2021/04/26 09:15:03;;;;;;;9.77;5.47;;;;;;;11.46;54.06;92453.94;4962078;28;20035;-91
2021/04/26 09:18:32;;;;;;;;;;;;;;;;;;;;;
2021/04/26 09:36:48;;;;;;;8.85;5.65;;;;;;;12.17;50.51;92419.44;4855034;29;20041;-94
2021/04/26 09:39:45;;;;;;;;;;;;;;;;;;;;;
2021/04/26 09:53:36;;;;;;;12.95;5.90;;;;;;;11.64;51.36;92399.03;4853697;29;20068;-91
2021/04/26 09:56:47;;;;;;;12.68;6.45;;;;;;;11.81;51.51;92396.59;4845781;29;20562;-93
2021/04/26 10:03:42;;;;;;;12.50;6.78;;;;;;;11.82;51.90;92371.94;4940760;29;20047;-92
2021/04/26 10:09:52;;;;;;;;;;;;;;;;;;;;;
2021/04/26 10:12:39;;;;;;;12.38;6.10;;;;;;;12.24;53.68;92385.69;5029357;28;20041;-92
2021/04/26 10:15:55;;;;;;;10.70;6.25;;;;;;;12.11;54.33;92407.50;5041109;28;20049;-93
2021/04/26 10:19:13;;;;;;;8.73;6.35;;;;;;;11.88;56.59;92372.59;5028274;28;20041;-91
2021/04/26 10:22:56;;;;;;;10.15;6.53;;;;;;;11.98;55.48;92410.94;5018309;28;20140;-93
2021/04/26 10:29:26;;;;;;;;;;;;;;;;;;;;;
2021/04/26 10:32:31;;;;;;;;;;;;;;;;;;;;;
2021/04/26 10:35:50;;;;;;;;;;;;;;;;;;;;;
2021/04/26 10:38:55;;;;;;;11.38;6.57;;;;;;;12.22;55.08;92403.56;5032829;28;20072;-91
2021/04/26 10:45:24;;;;;;;11.40;6.03;;;;;;;12.07;53.35;92340.97;5053511;28;20564;-92
2021/04/26 10:48:41;;;;;;;9.70;6.00;;;;;;;11.50;52.88;92335.38;5053888;28;20064;-92
2021/04/26 10:51:41;;;;;;;8.48;5.70;;;;;;;12.06;52.65;92391.88;5028996;28;20071;-91
2021/04/26 10:55:04;;;;;;;9.07;5.65;;;;;;;11.72;52.76;92389.72;5036106;28;20083;-90
2021/04/26 10:58:06;;;;;;;;;;;;;;;;;;;;;
2021/04/26 11:01:45;;;;;;;9.70;6.07;;;;;;;11.80;54.29;92381.94;5041940;28;20132;-90
2021/04/26 11:05:13;;;;;;;10.10;6.20;;;;;;;11.86;53.39;92380.72;4993737;28;20083;-90
2021/04/26 11:14:52;;;;;;;;;;;;;;;;;;;;;
2021/04/26 11:20:48;;;;;;;;;;;;;;;;;;;;;
2021/04/26 11:24:24;;;;;;;;;;;;;;;;;;;;;
2021/04/26 11:30:36;;;;;;;;;;;;;;;;;;;;;
2021/04/26 11:33:55;;;;;;;9.45;6.68;;;;;;;11.78;52.99;92373.59;5037388;28;20103;-92
2021/04/26 11:37:07;;;;;;;10.48;7.20;;;;;;;11.95;52.75;92372.97;5003569;28;20037;-91
2021/04/26 11:40:00;;;;;;;;;;;;;;;;;;;;;
2021/04/26 11:43:02;;;;;;;12.90;7.10;;;;;;;11.81;52.57;92315.28;5024974;28;20049;-91
2021/04/26 11:46:08;;;;;;;12.52;7.15;;;;;;;12.13;51.91;92325.88;5043527;28;20061;-91
2021/04/26 11:49:32;;;;;;;9.82;6.68;;;;;;;12.41;50.76;92347.53;5021753;28;20045;-91
2021/04/26 11:52:24;;;;;;;13.40;7.15;;;;;;;12.31;50.77;92332.00;5036470;28;20053;-91
2021/04/26 11:55:17;;;;;;;11.13;6.95;;;;;;;12.10;52.44;92343.00;5020628;28;20132;-90
2021/04/26 11:57:58;;;;;;;12.32;7.88;;;;;;;11.94;52.70;92341.81;5038492;28;20042;-89
2021/04/26 12:07:47;;;;;;;;;;;;;;;;;;;;;
2021/04/26 12:10:51;;;;;;;13.20;8.13;;;;;;;11.86;52.86;92323.03;5032385;28;20046;-90
2021/04/26 12:17:06;;;;;;;13.10;7.75;;;;;;;12.14;51.90;92299.34;5009204;28;20075;-92
2021/04/26 12:20:17;;;;;;;12.20;7.90;;;;;;;12.44;51.37;92331.16;5021834;28;20080;-91
2021/04/26 12:23:14;;;;;;;15.73;9.00;;;;;;;12.54;50.96;92303.88;5001936;28;20069;-90
2021/04/26 12:25:51;;;;;;;13.05;8.10;;;;;;;12.51;51.11;92279.00;5022977;28;20049;-91
2021/04/26 12:29:04;;;;;;;18.40;8.80;;;;;;;12.96;50.57;92326.13;5018540;28;20045;-91
2021/04/26 12:31:37;;;;;;;17.73;9.85;;;;;;;12.93;50.92;92307.59;4993177;28;20130;-91
2021/04/26 12:34:31;;;;;;;16.98;10.05;;;;;;;12.00;50.69;92282.88;5006575;28;20045;-91
2021/04/26 12:37:49;;;;;;;;;;;;;;;;;;;;;
2021/04/26 12:41:03;;;;;;;18.05;10.02;;;;;;;12.20;51.07;92279.00;5022609;28;20041;-91
2021/04/26 12:44:33;;;;;;;;;;;;;;;12.49;52.29;92325.78;4945930;28;20062;-91
2021/04/26 12:50:20;;;;;;;15.85;10.20;;;;;;;12.57;50.23;92269.91;5027229;28;20048;-91
2021/04/26 12:53:37;;;;;;;19.30;10.25;;;;;;;12.88;49.49;92308.50;5005536;28;20095;-92
2021/04/26 12:56:18;;;;;;;19.48;11.35;;;;;;;12.76;50.04;92246.03;5017436;28;20549;-91
2021/04/26 12:59:22;;;;;;;;;;;;;;;;;;;;;
2021/04/26 13:02:21;;;;;;;20.60;12.63;;;;;;;12.07;48.92;92239.44;5024525;28;20049;-90
2021/04/26 13:05:31;;;;;;;23.35;13.35;;;;;;;12.10;50.94;92232.81;5024459;28;20068;-91
2021/04/26 13:08:20;;;;;;;;;;;;;;;;;;;;;
2021/04/26 13:22:22;;;;;;;20.73;10.27;;;;;;;11.42;48.11;92224.94;5004431;28;20038;-92
2021/04/26 13:25:35;;;;;;;;;;;;;;;;;;;;;
2021/04/26 13:29:21;;;;;;;18.52;10.85;;;;;;;11.46;48.37;92204.94;5018857;28;20043;-92
2021/04/26 13:32:17;;;;;;;20.27;9.63;;;;;;;11.95;48.57;92264.66;5016100;28;20124;-91
2021/04/26 13:38:24;;;;;;;23.30;12.38;;;;;;;11.34;50.25;92207.28;4982586;28;20041;-92
2021/04/26 13:42:08;;;;;;;;;;;;;;;;;;;;;
2021/04/26 13:45:48;;;;;;;;;;;;;;;;;;;;;
2021/04/26 13:49:05;;;;;;;17.90;10.50;;;;;;;11.65;49.61;92194.25;5024004;28;20072;-93
2021/04/26 13:52:18;;;;;;;;;;;;;;;;;;;;;
2021/04/26 13:55:41;;;;;;;19.25;11.38;;;;;;;11.85;49.00;92210.56;5017326;28;20040;-92
2021/04/26 13:59:13;;;;;;;;;;;;;;;;;;;;;
2021/04/26 14:02:20;;;;;;;;;;;;;;;;;;;;;
2021/04/26 14:09:01;;;;;;;;;;;;;;;;;;;;;
2021/04/26 14:12:12;;;;;;;;;;;;;;;;;;;;;
2021/04/26 14:19:09;;;;;;;;;;;;;;;;;;;;;
2021/04/26 14:22:19;;;;;;;;;;;;;;;;;;;;;
2021/04/26 14:25:30;;;;;;;16.52;9.75;;;;;;;10.96;51.76;92220.69;5026123;28;20049;-93
2021/04/26 14:31:38;;;;;;;;;;;;;;;;;;;;;
2021/04/26 14:34:43;;;;;;;;;;;;;;;;;;;;;
2021/04/26 14:38:15;;;;;;;;;;;;;;;;;;;;;
2021/04/26 14:41:07;;;;;;;15.93;8.95;;;;;;;10.73;52.41;92170.13;5036466;28;20056;-91
2021/04/26 14:44:06;;;;;;;;;;;;;;;;;;;;;
2021/04/26 14:50:35;;;;;;;14.07;8.77;;;;;;;10.61;52.08;92139.22;5038420;28;20056;-93
2021/04/26 14:53:35;;;;;;;15.10;8.35;;;;;;;10.61;52.64;92167.25;5008094;28;20049;-92
2021/04/26 14:57:06;;;;;;;18.80;10.88;;;;;;;10.42;53.74;92130.72;5023076;28;20045;-90
2021/04/26 15:03:38;;;;;;;18.48;11.65;;;;;;;10.23;54.42;92124.81;5018302;28;20325;-91
2021/04/26 15:07:01;;;;;;;;;;;;;;;;;;;;;
2021/04/26 15:09:55;;;;;;;20.13;10.77;;;;;;;10.25;55.46;92130.53;5057933;28;20069;-92
2021/04/26 15:13:21;;;;;;;;;;;;;;;;;;;;;
2021/04/26 15:16:19;;;;;;;17.75;11.00;;;;;;;10.07;56.20;92119.09;5031230;28;20395;-91
2021/04/26 15:22:38;;;;;;;;;;;;;;;;;;;;;
2021/04/26 15:25:43;;;;;;;;;;;;;;;;;;;;;
2021/04/26 15:28:56;;;;;;;24.40;14.07;;;;;;;9.92;58.15;92112.31;5046903;28;20061;-90
2021/04/26 15:31:58;;;;;;;;;;;;;;;;;;;;;
2021/04/26 15:35:10;;;;;;;26.67;14.40;;;;;;;10.33;58.51;92175.09;5030164;28;20580;-89
2021/04/26 15:38:23;;;;;;;;;;;;;;;;;;;;;
2021/04/26 15:41:43;;;;;;;30.15;17.73;;;;;;;10.25;60.39;92152.22;5046033;28;20048;-91
2021/04/26 15:48:02;;;;;;;;;;;;;;;;;;;;;
2021/04/26 15:51:34;;;;;;;30.85;16.30;;;;;;;9.98;63.32;92119.00;5031681;28;20052;-90
2021/04/26 15:54:15;;;;;;;28.05;16.02;;;;;;;10.08;65.29;92147.56;5047427;28;20394;-91
2021/04/26 15:57:51;;;;;;;25.95;17.58;;;;;;;9.94;66.31;92158.03;5015462;28;20052;-91
2021/04/26 16:00:35;;;;;;;30.45;17.85;;;;;;;9.58;68.04;92145.56;5038286;28;20045;-90
2021/04/26 16:03:33;;;;;;;;;;;;;;;;;;;;;
2021/04/26 16:06:19;;;;;;;32.65;20.15;;;;;;;9.30;69.92;92112.59;5023642;28;20045;-90
2021/04/26 16:08:57;;;;;;;35.60;21.10;;;;;;;9.35;69.73;92105.47;5004946;28;20045;-90
2021/04/26 16:11:58;;;;;;;30.23;18.77;;;;;;;9.58;69.13;92109.00;5023923;28;20144;-91
2021/04/26 16:15:10;;;;;;;;;;;;;;;;;;;;;
2021/04/26 16:18:17;;;;;;;38.58;22.73;;;;;;;9.43;69.73;92095.41;5016518;28;20041;-91
2021/04/26 16:20:53;;;;;;;42.42;22.10;;;;;;;9.68;69.92;92157.72;5018511;28;20045;-91
2021/04/26 16:23:48;;;;;;;36.58;22.08;;;;;;;9.71;69.96;92158.97;5036490;28;20041;-90
2021/04/26 16:26:35;;;;;;;;;;;;;;;;;;;;;
2021/04/26 16:29:43;;;;;;;;;;;;;;;;;;;;;
2021/04/26 16:32:40;;;;;;;56.42;34.00;;;;;;;9.58;70.48;92163.09;5046733;28;20054;-90
2021/04/26 16:35:56;;;;;;;;;;;;;;;;;;;;;
2021/04/26 16:46:15;;;;;;;41.30;23.55;;;;;;;9.31;70.33;92109.72;5048895;28;20055;-90
2021/04/26 16:49:21;;;;;;;36.80;23.65;;;;;;;9.20;70.13;92095.28;5013787;28;20057;-91
2021/04/26 16:52:23;;;;;;;42.85;27.40;;;;;;;9.21;70.86;92094.22;5033426;28;20042;-90
2021/04/26 16:55:40;;;;;;;;;;;;;;;;;;;;;
2021/04/26 17:01:53;;;;;;;41.63;24.70;;;;;;;9.46;70.65;92118.38;5031893;28;20081;-91
2021/04/26 17:05:00;;;;;;;40.28;21.58;;;;;;;9.43;70.70;92095.41;5015804;28;20046;-90
2021/04/26 17:08:24;;;;;;;45.10;26.10;;;;;;;9.43;71.14;92108.47;5021623;28;20048;-90
2021/04/26 17:14:58;;;;;;;60.08;36.70;;;;;;;9.42;71.08;92089.44;5011513;28;20080;-91
2021/04/26 17:17:51;;;;;;;36.40;22.90;;;;;;;9.55;71.06;92103.59;5004737;28;20056;-91
2021/04/26 17:20:45;;;;;;;34.47;21.98;;;;;;;9.69;70.69;92109.59;5016746;28;20049;-91
2021/04/26 17:23:49;;;;;;;;;;;;;;;;;;;;;
2021/04/26 17:26:51;;;;;;;35.92;21.38;;;;;;;9.43;70.85;92074.53;5029189;28;20043;-91
2021/04/26 17:32:25;;;;;;;37.17;24.65;;;;;;;9.48;71.70;92126.69;5017978;28;20287;-91
2021/04/26 17:35:33;;;;;;;;;;;;;;;;;;;;;
2021/04/26 17:44:37;;;;;;;39.70;23.75;;;;;;;9.16;73.01;92121.22;5031238;28;20068;-91
2021/04/26 17:47:18;;;;;;;43.47;26.63;;;;;;;9.02;73.20;92096.88;5003352;28;20060;-90
2021/04/26 17:53:55;;;;;;;43.25;26.35;;;;;;;9.08;74.03;92128.91;5016596;28;20045;-91
2021/04/26 17:56:38;;;;;;;41.95;24.63;;;;;;;8.95;73.55;92123.34;5018626;28;20068;-90
2021/04/26 18:02:49;;;;;;;;;;;;;;;;;;;;;
2021/04/26 18:06:00;;;;;;;54.13;30.73;;;;;;;8.74;74.38;92103.84;5045415;28;20064;-91
2021/04/26 18:09:16;;;;;;;48.20;28.67;;;;;;;8.88;74.76;92140.44;5009493;28;20046;-90
2021/04/26 18:12:13;;;;;;;39.53;24.00;;;;;;;8.45;74.78;92089.09;5044084;28;20494;-92
2021/04/26 18:14:54;;;;;;;46.30;26.25;;;;;;;8.47;74.57;92092.19;5004129;28;20053;-90
2021/04/26 18:18:03;;;;;;;42.72;27.83;;;;;;;8.43;74.95;92090.44;5020583;28;20063;-90
2021/04/26 18:21:06;;;;;;;61.97;32.97;;;;;;;8.55;74.86;92094.16;5009488;28;20131;-93
2021/04/26 18:24:55;;;;;;;48.50;30.45;;;;;;;8.40;75.41;92101.38;5026109;28;20045;-90
2021/04/26 18:27:36;;;;;;;38.00;23.13;;;;;;;8.32;75.28;92108.03;5023399;28;20049;-90
2021/04/26 18:34:06;;;;;;;;;;;;;;;;;;;;;
2021/04/26 18:37:25;;;;;;;;;;;;;;;;;;;;;
2021/04/26 18:46:57;;;;;;;50.40;30.23;;;;;;;8.22;75.40;92089.88;5020258;28;20052;-89
2021/04/26 18:50:17;;;;;;;40.72;24.58;;;;;;;8.28;75.49;92115.63;5037573;28;20041;-88
2021/04/26 18:53:16;;;;;;;;;;;;;;;;;;;;;
2021/04/26 18:56:42;;;;;;;;;;;;;;;;;;;;;
2021/04/26 18:59:40;;;;;;;48.10;25.40;;;;;;;8.28;75.32;92115.63;5028814;28;20045;-89
2021/04/26 19:03:09;;;;;;;40.25;24.25;;;;;;;8.46;75.50;92137.59;5055935;28;20577;-90
2021/04/26 19:06:30;;;;;;;40.53;25.40;;;;;;;8.33;75.95;92138.25;5013505;28;20052;-89
2021/04/26 19:13:24;;;;;;;43.20;26.42;;;;;;;8.18;77.07;92115.00;5015730;28;20064;-88
2021/04/26 19:20:09;;;;;;;41.08;26.10;;;;;;;8.50;76.67;92179.56;4993106;28;20049;-87
2021/04/26 19:27:32;;;;;;;;;;;;;;;;;;;;;
2021/04/26 19:30:45;;;;;;;;;;;;;;;;;;;;;
2021/04/26 19:37:49;;;;;;;66.03;37.28;;;;;;;8.39;77.06;92172.88;5052605;28;20111;-86
2021/04/26 19:41:09;;;;;;;;;;;;;;;;;;;;;
2021/04/26 19:48:28;;;;;;;;;;;;;;;;;;;;;
2021/04/26 19:51:53;;;;;;;;;;;;;;;;;;;;;
2021/04/26 19:55:08;;;;;;;;;;;;;;;;;;;;;
2021/04/26 20:02:23;;;;;;;;;;;;;;;;;;;;;
2021/04/26 20:05:48;;;;;;;50.70;28.10;;;;;;;8.24;79.15;92171.22;5028744;28;20479;-88
2021/04/26 20:12:40;;;;;;;49.22;29.23;;;;;;;7.67;79.40;92117.09;4999161;28;20050;-86
2021/04/26 20:23:01;;;;;;;51.05;30.20;;;;;;;7.66;81.45;92115.56;4999409;28;20051;-86
2021/04/26 20:26:16;;;;;;;49.05;29.25;;;;;;;7.66;79.69;92112.97;4998382;28;20046;-89
2021/04/26 20:29:25;;;;;;;;;;;;;;;;;;;;;
2021/04/26 20:32:18;;;;;;;53.45;32.15;;;;;;;7.78;81.75;92161.31;5053487;28;20370;-89
2021/04/26 20:35:51;;;;;;;53.00;32.95;;;;;;;7.65;82.60;92139.28;5024896;28;20055;-89
2021/04/26 20:38:37;;;;;;;56.10;33.60;;;;;;;7.47;82.27;92117.31;5052722;28;20094;-90
2021/04/26 20:41:41;;;;;;;62.33;36.33;;;;;;;7.72;83.58;92163.97;5038575;28;20055;-90
2021/04/26 20:44:28;;;;;;;;;;;;;;;;;;;;;
2021/04/26 20:47:30;;;;;;;65.55;35.08;;;;;;;7.52;83.44;92119.88;5022632;28;20077;-91
2021/04/26 20:50:11;;;;;;;61.38;35.45;;;;;;;7.67;84.20;92148.38;5008954;28;20411;-91
2021/04/26 20:53:57;;;;;;;56.67;33.38;;;;;;;7.58;84.18;92123.97;5040204;28;20059;-91
2021/04/26 20:56:59;;;;;;;62.03;35.00;;;;;;;7.57;85.01;92125.03;5055245;28;20059;-90
2021/04/26 20:59:48;;;;;;;73.10;37.28;;;;;;;7.43;84.58;92103.28;5005125;28;20033;-90
2021/04/26 21:02:35;;;;;;;63.30;36.92;;;;;;;7.57;84.23;92130.25;5025748;28;20512;-91
2021/04/26 21:05:32;;;;;;;60.58;36.13;;;;;;;7.39;84.30;92100.47;5005168;28;20048;-90
2021/04/26 21:08:24;;;;;;;62.00;36.35;;;;;;;7.63;84.30;92134.38;5021469;28;20072;-91
2021/04/26 21:11:11;;;;;;;69.22;38.35;;;;;;;7.43;85.12;92095.47;5030788;28;20049;-91
2021/04/26 21:14:03;;;;;;;60.55;36.85;;;;;;;7.47;85.41;92099.84;5019750;28;20064;-90
2021/04/26 21:17:03;;;;;;;;;;;;;;;;;;;;;
2021/04/26 21:19:44;;;;;;;;;;;;;;;;;;;;;
2021/04/26 21:25:49;;;;;;;61.38;36.55;;;;;;;7.65;84.39;92129.63;5027760;28;20046;-90
2021/04/26 21:28:33;;;;;;;58.50;36.22;;;;;;;7.46;85.12;92100.16;5000812;28;20468;-91
2021/04/26 21:31:50;;;;;;;67.68;38.83;;;;;;;7.48;87.33;92150.91;5029833;28;20037;-90
2021/04/26 21:34:32;;;;;;;121.97;38.53;;;;;;;7.18;88.37;92099.88;5001573;28;20143;-90
2021/04/26 21:37:23;;;;;;;115.55;38.28;;;;;;;7.22;88.57;92136.53;5022718;28;20121;-89
2021/04/26 21:40:11;;;;;;;;;;;;;;;;;;;;;
2021/04/26 21:42:56;;;;;;;405.95;38.03;;;;;;;6.71;89.83;92110.91;5031659;28;20073;-89
2021/04/26 21:46:15;;;;;;;;;;;;;;;;;;;;;
2021/04/26 21:49:01;;;;;;;641.55;35.08;;;;;;;6.53;91.34;92099.31;5020852;28;20048;-89
2021/04/26 21:55:10;;;;;;;;;;;;;;;;;;;;;
2021/04/26 21:58:16;;;;;;;177.23;19.35;;;;;;;6.45;91.40;92093.66;5038695;28;20140;-90
2021/04/26 22:00:48;;;;;;;71.82;27.42;;;;;;;6.31;91.45;92082.31;5037379;28;20048;-89
2021/04/26 22:03:36;;;;;;;483.73;29.58;;;;;;;6.29;91.63;92089.59;5020496;28;20056;-90
2021/04/26 22:06:25;;;;;;;166.73;23.80;;;;;;;6.55;91.74;92133.63;5021707;28;20072;-91
2021/04/26 22:09:19;;;;;;;40.58;23.98;;;;;;;6.30;89.84;92090.38;5026435;28;20080;-90
2021/04/26 22:11:57;;;;;;;43.63;25.00;;;;;;;6.39;90.00;92099.16;5017604;28;20045;-90
2021/04/26 22:14:39;;;;;;;41.72;25.73;;;;;;;6.59;89.85;92129.47;5020670;28;20046;-89
2021/04/26 22:17:38;;;;;;;33.60;20.30;;;;;;;6.47;89.69;92127.97;4998306;28;20046;-90
2021/04/26 22:20:42;;;;;;;;;;;;;;;;;;;;;
2021/04/26 22:23:50;;;;;;;90.53;27.13;;;;;;;6.12;90.58;92082.13;5041989;28;20072;-90
2021/04/26 22:26:41;;;;;;;35.28;19.48;;;;;;;5.92;89.40;92110.78;5033302;28;20053;-90
2021/04/26 22:29:25;;;;;;;39.33;23.70;;;;;;;5.98;88.52;92101.97;5033912;28;20045;-89
2021/04/26 22:39:21;;;;;;;39.53;21.85;;;;;;;5.72;86.26;92093.44;5008636;28;20524;-90
2021/04/26 22:42:02;;;;;;;39.75;22.98;;;;;;;5.51;88.20;92092.75;5006520;28;20069;-91
2021/04/26 22:45:11;;;;;;;;;;;;;;;;;;;;;
2021/04/26 22:47:53;;;;;;;32.10;20.10;;;;;;;5.93;87.16;92154.69;5019370;28;20049;-90
2021/04/26 22:50:31;;;;;;;33.08;19.65;;;;;;;5.79;87.04;92127.72;5001952;28;20050;-91
2021/04/26 22:53:24;;;;;;;32.92;17.38;;;;;;;5.94;86.13;92148.47;5030072;28;20120;-90
2021/04/26 22:56:25;;;;;;;;;;;;;;;;;;;;;
2021/04/26 22:59:01;;;;;;;24.77;16.05;;;;;;;5.63;85.94;92088.81;5017890;28;20205;-91
2021/04/26 23:01:39;;;;;;;25.23;15.45;;;;;;;5.75;86.29;92124.09;5018851;28;20570;-90
2021/04/26 23:04:35;;;;;;;;;;;;;;;;;;;;;
2021/04/26 23:07:19;;;;;;;24.58;15.30;;;;;;;5.53;86.75;92093.25;5039410;28;20048;-90